sensor_id;sensor_type;location;lat;lon;timestamp;P1;durP1;ratioP1;P2;durP2;ratioP2
2638;SDS011;1329;51.384;7.122;2024-02-28T00:01:47;24.97;;;18.17;;
2638;SDS011;1329;51.384;7.122;2024-02-28T00:04:16;25.13;;;17.53;;
2638;SDS011;1329;51.384;7.122;2024-02-28T00:06:51;22.50;;;17.20;;
2638;SDS011;1329;51.384;7.122;2024-02-28T00:09:27;24.67;;;17.60;;
2638;SDS011;1329;51.384;7.122;2024-02-28T00:11:56;25.07;;;17.43;;
2638;SDS011;1329;51.384;7.122;2024-02-28T00:14:28;25.00;;;17.60;;
2638;SDS011;1329;51.384;7.122;2024-02-28T00:16:56;23.67;;;16.57;;
2638;SDS011;1329;51.384;7.122;2024-02-28T00:19:26;24.97;;;17.67;;
2638;SDS011;1329;51.384;7.122;2024-02-28T00:21:56;23.97;;;17.50;;
2638;SDS011;1329;51.384;7.122;2024-02-28T00:24:26;25.53;;;17.53;;
2638;SDS011;1329;51.384;7.122;2024-02-28T00:26:56;24.37;;;17.23;;
2638;SDS011;1329;51.384;7.122;2024-02-28T00:29:26;22.37;;;16.67;;
2638;SDS011;1329;51.384;7.122;2024-02-28T00:32:02;25.00;;;17.73;;
2638;SDS011;1329;51.384;7.122;2024-02-28T00:34:44;25.97;;;18.23;;
2638;SDS011;1329;51.384;7.122;2024-02-28T00:37:13;25.47;;;17.43;;
2638;SDS011;1329;51.384;7.122;2024-02-28T00:40:00;23.70;;;17.33;;
2638;SDS011;1329;51.384;7.122;2024-02-28T00:42:30;25.50;;;18.50;;
2638;SDS011;1329;51.384;7.122;2024-02-28T00:45:00;23.63;;;17.27;;
2638;SDS011;1329;51.384;7.122;2024-02-28T00:47:28;23.77;;;17.30;;
2638;SDS011;1329;51.384;7.122;2024-02-28T00:49:55;25.87;;;16.97;;
2638;SDS011;1329;51.384;7.122;2024-02-28T00:52:35;23.57;;;17.73;;
2638;SDS011;1329;51.384;7.122;2024-02-28T00:55:05;24.57;;;17.43;;
2638;SDS011;1329;51.384;7.122;2024-02-28T00:57:39;24.83;;;17.07;;
2638;SDS011;1329;51.384;7.122;2024-02-28T01:00:10;25.67;;;17.93;;
2638;SDS011;1329;51.384;7.122;2024-02-28T01:02:42;26.73;;;18.80;;
2638;SDS011;1329;51.384;7.122;2024-02-28T01:05:13;26.00;;;18.40;;
2638;SDS011;1329;51.384;7.122;2024-02-28T01:07:42;25.23;;;17.10;;
2638;SDS011;1329;51.384;7.122;2024-02-28T01:10:16;25.77;;;18.30;;
2638;SDS011;1329;51.384;7.122;2024-02-28T01:12:48;25.57;;;17.10;;
2638;SDS011;1329;51.384;7.122;2024-02-28T01:15:19;26.27;;;18.47;;
2638;SDS011;1329;51.384;7.122;2024-02-28T01:17:47;26.30;;;18.07;;
2638;SDS011;1329;51.384;7.122;2024-02-28T01:20:14;27.80;;;19.00;;
2638;SDS011;1329;51.384;7.122;2024-02-28T01:22:47;25.43;;;17.97;;
2638;SDS011;1329;51.384;7.122;2024-02-28T01:25:17;25.83;;;18.17;;
2638;SDS011;1329;51.384;7.122;2024-02-28T01:27:48;27.03;;;19.13;;
2638;SDS011;1329;51.384;7.122;2024-02-28T01:30:16;26.50;;;18.47;;
2638;SDS011;1329;51.384;7.122;2024-02-28T01:32:45;27.93;;;19.03;;
2638;SDS011;1329;51.384;7.122;2024-02-28T01:35:13;26.83;;;18.70;;
2638;SDS011;1329;51.384;7.122;2024-02-28T01:37:40;26.27;;;18.47;;
2638;SDS011;1329;51.384;7.122;2024-02-28T01:40:13;26.20;;;18.17;;
2638;SDS011;1329;51.384;7.122;2024-02-28T01:42:41;25.73;;;18.33;;
2638;SDS011;1329;51.384;7.122;2024-02-28T01:45:09;25.60;;;17.70;;
2638;SDS011;1329;51.384;7.122;2024-02-28T01:47:43;26.93;;;18.70;;
2638;SDS011;1329;51.384;7.122;2024-02-28T01:50:11;27.40;;;18.03;;
2638;SDS011;1329;51.384;7.122;2024-02-28T01:52:41;27.40;;;18.33;;
2638;SDS011;1329;51.384;7.122;2024-02-28T01:55:11;28.83;;;18.77;;
2638;SDS011;1329;51.384;7.122;2024-02-28T01:57:49;25.47;;;17.87;;
2638;SDS011;1329;51.384;7.122;2024-02-28T02:00:17;24.77;;;17.80;;
2638;SDS011;1329;51.384;7.122;2024-02-28T02:02:46;25.57;;;17.80;;
2638;SDS011;1329;51.384;7.122;2024-02-28T02:05:16;27.33;;;19.13;;
2638;SDS011;1329;51.384;7.122;2024-02-28T02:07:46;26.53;;;18.47;;
2638;SDS011;1329;51.384;7.122;2024-02-28T02:10:24;26.20;;;18.83;;
2638;SDS011;1329;51.384;7.122;2024-02-28T02:12:52;27.83;;;18.77;;
2638;SDS011;1329;51.384;7.122;2024-02-28T02:15:19;26.57;;;19.73;;
2638;SDS011;1329;51.384;7.122;2024-02-28T02:17:54;24.43;;;17.93;;
2638;SDS011;1329;51.384;7.122;2024-02-28T02:20:25;26.20;;;18.87;;
2638;SDS011;1329;51.384;7.122;2024-02-28T02:23:00;26.20;;;19.17;;
2638;SDS011;1329;51.384;7.122;2024-02-28T02:25:43;26.83;;;19.50;;
2638;SDS011;1329;51.384;7.122;2024-02-28T02:28:14;26.07;;;18.83;;
2638;SDS011;1329;51.384;7.122;2024-02-28T02:30:44;26.37;;;19.07;;
2638;SDS011;1329;51.384;7.122;2024-02-28T02:33:12;26.00;;;19.73;;
2638;SDS011;1329;51.384;7.122;2024-02-28T02:35:40;28.07;;;19.13;;
2638;SDS011;1329;51.384;7.122;2024-02-28T02:38:12;28.73;;;20.10;;
2638;SDS011;1329;51.384;7.122;2024-02-28T02:40:42;29.17;;;19.93;;
2638;SDS011;1329;51.384;7.122;2024-02-28T02:43:11;33.27;;;22.87;;
2638;SDS011;1329;51.384;7.122;2024-02-28T02:45:39;30.57;;;20.13;;
2638;SDS011;1329;51.384;7.122;2024-02-28T02:48:08;37.20;;;22.80;;
2638;SDS011;1329;51.384;7.122;2024-02-28T02:50:36;37.27;;;24.50;;
2638;SDS011;1329;51.384;7.122;2024-02-28T02:53:04;36.80;;;24.40;;
2638;SDS011;1329;51.384;7.122;2024-02-28T02:55:36;38.90;;;24.77;;
2638;SDS011;1329;51.384;7.122;2024-02-28T02:58:04;40.03;;;24.67;;
2638;SDS011;1329;51.384;7.122;2024-02-28T03:00:31;41.40;;;25.13;;
2638;SDS011;1329;51.384;7.122;2024-02-28T03:02:59;35.37;;;22.37;;
2638;SDS011;1329;51.384;7.122;2024-02-28T03:05:27;34.47;;;22.90;;
2638;SDS011;1329;51.384;7.122;2024-02-28T03:07:55;37.07;;;23.00;;
2638;SDS011;1329;51.384;7.122;2024-02-28T03:10:23;39.07;;;24.30;;
2638;SDS011;1329;51.384;7.122;2024-02-28T03:12:51;38.50;;;24.87;;
2638;SDS011;1329;51.384;7.122;2024-02-28T03:15:19;38.00;;;24.27;;
2638;SDS011;1329;51.384;7.122;2024-02-28T03:17:47;40.50;;;25.70;;
2638;SDS011;1329;51.384;7.122;2024-02-28T03:20:19;42.83;;;26.27;;
2638;SDS011;1329;51.384;7.122;2024-02-28T03:22:46;40.80;;;25.77;;
2638;SDS011;1329;51.384;7.122;2024-02-28T03:25:17;40.27;;;24.83;;
2638;SDS011;1329;51.384;7.122;2024-02-28T03:27:44;38.53;;;23.43;;
2638;SDS011;1329;51.384;7.122;2024-02-28T03:30:14;37.67;;;23.97;;
2638;SDS011;1329;51.384;7.122;2024-02-28T03:32:42;35.90;;;23.50;;
2638;SDS011;1329;51.384;7.122;2024-02-28T03:35:10;34.20;;;22.57;;
2638;SDS011;1329;51.384;7.122;2024-02-28T03:37:37;39.67;;;24.63;;
2638;SDS011;1329;51.384;7.122;2024-02-28T03:40:06;35.73;;;23.80;;
2638;SDS011;1329;51.384;7.122;2024-02-28T03:42:34;33.97;;;23.37;;
2638;SDS011;1329;51.384;7.122;2024-02-28T03:45:03;36.00;;;24.50;;
2638;SDS011;1329;51.384;7.122;2024-02-28T03:47:33;36.93;;;24.60;;
2638;SDS011;1329;51.384;7.122;2024-02-28T03:50:00;40.63;;;27.43;;
2638;SDS011;1329;51.384;7.122;2024-02-28T03:52:29;40.13;;;26.20;;
2638;SDS011;1329;51.384;7.122;2024-02-28T03:54:56;39.80;;;25.80;;
2638;SDS011;1329;51.384;7.122;2024-02-28T03:57:24;44.73;;;27.97;;
2638;SDS011;1329;51.384;7.122;2024-02-28T03:59:52;42.43;;;27.30;;
2638;SDS011;1329;51.384;7.122;2024-02-28T04:02:20;48.87;;;29.27;;
2638;SDS011;1329;51.384;7.122;2024-02-28T04:04:49;46.80;;;29.07;;
2638;SDS011;1329;51.384;7.122;2024-02-28T04:07:16;42.23;;;26.60;;
2638;SDS011;1329;51.384;7.122;2024-02-28T04:09:47;47.00;;;30.37;;
2638;SDS011;1329;51.384;7.122;2024-02-28T04:12:15;50.33;;;30.90;;
2638;SDS011;1329;51.384;7.122;2024-02-28T04:14:43;45.17;;;29.73;;
2638;SDS011;1329;51.384;7.122;2024-02-28T04:17:11;48.90;;;30.33;;
2638;SDS011;1329;51.384;7.122;2024-02-28T04:19:39;47.80;;;29.23;;
2638;SDS011;1329;51.384;7.122;2024-02-28T04:22:08;46.97;;;28.37;;
2638;SDS011;1329;51.384;7.122;2024-02-28T04:24:36;46.77;;;28.83;;
2638;SDS011;1329;51.384;7.122;2024-02-28T04:27:06;46.33;;;28.90;;
2638;SDS011;1329;51.384;7.122;2024-02-28T04:29:36;45.57;;;28.43;;
2638;SDS011;1329;51.384;7.122;2024-02-28T04:32:05;47.57;;;29.33;;
2638;SDS011;1329;51.384;7.122;2024-02-28T04:34:32;47.80;;;29.33;;
2638;SDS011;1329;51.384;7.122;2024-02-28T04:37:05;46.47;;;29.07;;
2638;SDS011;1329;51.384;7.122;2024-02-28T04:39:36;43.23;;;27.17;;
2638;SDS011;1329;51.384;7.122;2024-02-28T04:42:04;51.03;;;31.40;;
2638;SDS011;1329;51.384;7.122;2024-02-28T04:44:32;54.00;;;34.07;;
2638;SDS011;1329;51.384;7.122;2024-02-28T04:47:00;49.80;;;32.33;;
2638;SDS011;1329;51.384;7.122;2024-02-28T04:49:29;49.40;;;31.10;;
2638;SDS011;1329;51.384;7.122;2024-02-28T04:51:59;47.50;;;31.27;;
2638;SDS011;1329;51.384;7.122;2024-02-28T04:54:27;51.27;;;32.70;;
2638;SDS011;1329;51.384;7.122;2024-02-28T04:56:55;52.50;;;34.57;;
2638;SDS011;1329;51.384;7.122;2024-02-28T04:59:22;53.43;;;34.27;;
2638;SDS011;1329;51.384;7.122;2024-02-28T05:01:53;53.33;;;33.23;;
2638;SDS011;1329;51.384;7.122;2024-02-28T05:04:21;49.83;;;32.80;;
2638;SDS011;1329;51.384;7.122;2024-02-28T05:06:49;52.23;;;32.87;;
2638;SDS011;1329;51.384;7.122;2024-02-28T05:09:16;53.93;;;33.50;;
2638;SDS011;1329;51.384;7.122;2024-02-28T05:11:46;51.63;;;34.10;;
2638;SDS011;1329;51.384;7.122;2024-02-28T05:14:14;51.40;;;32.87;;
2638;SDS011;1329;51.384;7.122;2024-02-28T05:16:41;51.67;;;33.33;;
2638;SDS011;1329;51.384;7.122;2024-02-28T05:19:09;48.73;;;31.10;;
2638;SDS011;1329;51.384;7.122;2024-02-28T05:21:41;46.87;;;29.73;;
2638;SDS011;1329;51.384;7.122;2024-02-28T05:24:09;48.83;;;30.80;;
2638;SDS011;1329;51.384;7.122;2024-02-28T05:26:37;53.27;;;32.87;;
2638;SDS011;1329;51.384;7.122;2024-02-28T05:29:06;53.23;;;34.87;;
2638;SDS011;1329;51.384;7.122;2024-02-28T05:31:34;53.53;;;33.53;;
2638;SDS011;1329;51.384;7.122;2024-02-28T05:34:03;52.97;;;34.00;;
2638;SDS011;1329;51.384;7.122;2024-02-28T05:36:31;53.83;;;34.60;;
2638;SDS011;1329;51.384;7.122;2024-02-28T05:39:00;56.20;;;34.73;;
2638;SDS011;1329;51.384;7.122;2024-02-28T05:41:30;51.73;;;32.47;;
2638;SDS011;1329;51.384;7.122;2024-02-28T05:43:58;60.60;;;35.73;;
2638;SDS011;1329;51.384;7.122;2024-02-28T05:46:27;55.23;;;34.03;;
2638;SDS011;1329;51.384;7.122;2024-02-28T05:48:55;54.87;;;33.90;;
2638;SDS011;1329;51.384;7.122;2024-02-28T05:51:23;60.60;;;36.60;;
2638;SDS011;1329;51.384;7.122;2024-02-28T05:53:51;54.73;;;32.47;;
2638;SDS011;1329;51.384;7.122;2024-02-28T05:56:19;55.47;;;35.17;;
2638;SDS011;1329;51.384;7.122;2024-02-28T05:58:48;61.83;;;37.33;;
2638;SDS011;1329;51.384;7.122;2024-02-28T06:01:15;60.23;;;34.93;;
2638;SDS011;1329;51.384;7.122;2024-02-28T06:03:46;58.73;;;36.30;;
2638;SDS011;1329;51.384;7.122;2024-02-28T06:06:16;64.03;;;37.10;;
2638;SDS011;1329;51.384;7.122;2024-02-28T06:08:44;67.63;;;39.57;;
2638;SDS011;1329;51.384;7.122;2024-02-28T06:11:12;64.73;;;38.87;;
2638;SDS011;1329;51.384;7.122;2024-02-28T06:13:40;68.70;;;39.57;;
2638;SDS011;1329;51.384;7.122;2024-02-28T06:16:13;59.27;;;35.37;;
2638;SDS011;1329;51.384;7.122;2024-02-28T06:18:43;65.10;;;36.13;;
2638;SDS011;1329;51.384;7.122;2024-02-28T06:21:12;65.03;;;37.93;;
2638;SDS011;1329;51.384;7.122;2024-02-28T06:23:40;64.67;;;38.43;;
2638;SDS011;1329;51.384;7.122;2024-02-28T06:26:10;76.20;;;40.03;;
2638;SDS011;1329;51.384;7.122;2024-02-28T06:28:42;65.10;;;37.47;;
2638;SDS011;1329;51.384;7.122;2024-02-28T06:31:16;69.57;;;39.00;;
2638;SDS011;1329;51.384;7.122;2024-02-28T06:33:45;69.40;;;39.03;;
2638;SDS011;1329;51.384;7.122;2024-02-28T06:36:15;72.80;;;39.60;;
2638;SDS011;1329;51.384;7.122;2024-02-28T06:38:43;65.87;;;37.70;;
2638;SDS011;1329;51.384;7.122;2024-02-28T06:41:11;67.20;;;37.80;;
2638;SDS011;1329;51.384;7.122;2024-02-28T06:43:43;73.90;;;39.87;;
2638;SDS011;1329;51.384;7.122;2024-02-28T06:46:11;72.10;;;40.10;;
2638;SDS011;1329;51.384;7.122;2024-02-28T06:48:39;71.20;;;39.80;;
2638;SDS011;1329;51.384;7.122;2024-02-28T06:51:07;71.20;;;40.43;;
2638;SDS011;1329;51.384;7.122;2024-02-28T06:53:37;75.77;;;41.20;;
2638;SDS011;1329;51.384;7.122;2024-02-28T06:56:07;70.93;;;38.17;;
2638;SDS011;1329;51.384;7.122;2024-02-28T06:58:35;69.53;;;38.40;;
2638;SDS011;1329;51.384;7.122;2024-02-28T07:01:06;71.93;;;38.80;;
2638;SDS011;1329;51.384;7.122;2024-02-28T07:03:33;70.73;;;38.77;;
2638;SDS011;1329;51.384;7.122;2024-02-28T07:06:01;69.67;;;37.63;;
2638;SDS011;1329;51.384;7.122;2024-02-28T07:08:29;69.87;;;37.50;;
2638;SDS011;1329;51.384;7.122;2024-02-28T07:11:03;66.37;;;37.77;;
2638;SDS011;1329;51.384;7.122;2024-02-28T07:13:30;72.63;;;38.27;;
2638;SDS011;1329;51.384;7.122;2024-02-28T07:15:58;69.40;;;37.50;;
2638;SDS011;1329;51.384;7.122;2024-02-28T07:18:25;69.03;;;38.57;;
2638;SDS011;1329;51.384;7.122;2024-02-28T07:20:54;75.30;;;41.07;;
2638;SDS011;1329;51.384;7.122;2024-02-28T07:23:23;75.50;;;41.33;;
2638;SDS011;1329;51.384;7.122;2024-02-28T07:25:51;75.13;;;40.40;;
2638;SDS011;1329;51.384;7.122;2024-02-28T07:28:26;68.40;;;38.07;;
2638;SDS011;1329;51.384;7.122;2024-02-28T07:30:54;71.43;;;38.37;;
2638;SDS011;1329;51.384;7.122;2024-02-28T07:33:22;70.67;;;37.60;;
2638;SDS011;1329;51.384;7.122;2024-02-28T07:35:51;68.53;;;37.27;;
2638;SDS011;1329;51.384;7.122;2024-02-28T07:38:19;59.77;;;34.43;;
2638;SDS011;1329;51.384;7.122;2024-02-28T07:40:52;63.50;;;35.60;;
2638;SDS011;1329;51.384;7.122;2024-02-28T07:43:20;65.20;;;36.60;;
2638;SDS011;1329;51.384;7.122;2024-02-28T07:45:49;63.43;;;36.37;;
2638;SDS011;1329;51.384;7.122;2024-02-28T07:48:17;65.93;;;36.77;;
2638;SDS011;1329;51.384;7.122;2024-02-28T07:50:45;66.90;;;36.17;;
2638;SDS011;1329;51.384;7.122;2024-02-28T07:53:12;68.83;;;37.57;;
2638;SDS011;1329;51.384;7.122;2024-02-28T07:55:40;67.80;;;37.17;;
2638;SDS011;1329;51.384;7.122;2024-02-28T07:58:08;67.70;;;36.90;;
2638;SDS011;1329;51.384;7.122;2024-02-28T08:00:36;65.43;;;36.97;;
2638;SDS011;1329;51.384;7.122;2024-02-28T08:03:09;66.63;;;37.47;;
2638;SDS011;1329;51.384;7.122;2024-02-28T08:05:37;67.73;;;36.67;;
2638;SDS011;1329;51.384;7.122;2024-02-28T08:08:06;73.50;;;39.57;;
2638;SDS011;1329;51.384;7.122;2024-02-28T08:10:33;72.10;;;39.20;;
2638;SDS011;1329;51.384;7.122;2024-02-28T08:13:01;75.50;;;39.83;;
2638;SDS011;1329;51.384;7.122;2024-02-28T08:15:29;79.07;;;40.73;;
2638;SDS011;1329;51.384;7.122;2024-02-28T08:17:57;80.77;;;41.27;;
2638;SDS011;1329;51.384;7.122;2024-02-28T08:20:26;73.13;;;40.90;;
2638;SDS011;1329;51.384;7.122;2024-02-28T08:22:55;75.43;;;40.60;;
2638;SDS011;1329;51.384;7.122;2024-02-28T08:25:23;79.23;;;41.53;;
2638;SDS011;1329;51.384;7.122;2024-02-28T08:27:54;74.50;;;40.10;;
2638;SDS011;1329;51.384;7.122;2024-02-28T08:30:22;74.90;;;39.73;;
2638;SDS011;1329;51.384;7.122;2024-02-28T08:32:50;71.37;;;38.07;;
2638;SDS011;1329;51.384;7.122;2024-02-28T08:35:18;75.03;;;38.80;;
2638;SDS011;1329;51.384;7.122;2024-02-28T08:37:47;72.40;;;38.33;;
2638;SDS011;1329;51.384;7.122;2024-02-28T08:40:15;71.00;;;37.83;;
2638;SDS011;1329;51.384;7.122;2024-02-28T08:42:43;71.63;;;37.90;;
2638;SDS011;1329;51.384;7.122;2024-02-28T08:45:11;68.07;;;37.90;;
2638;SDS011;1329;51.384;7.122;2024-02-28T08:47:42;75.87;;;40.03;;
2638;SDS011;1329;51.384;7.122;2024-02-28T08:50:10;76.30;;;39.40;;
2638;SDS011;1329;51.384;7.122;2024-02-28T08:52:39;68.03;;;38.47;;
2638;SDS011;1329;51.384;7.122;2024-02-28T08:55:08;69.03;;;37.43;;
2638;SDS011;1329;51.384;7.122;2024-02-28T08:57:38;64.37;;;36.87;;
2638;SDS011;1329;51.384;7.122;2024-02-28T09:00:06;62.90;;;35.97;;
2638;SDS011;1329;51.384;7.122;2024-02-28T09:02:40;65.10;;;35.37;;
2638;SDS011;1329;51.384;7.122;2024-02-28T09:05:08;65.43;;;36.60;;
2638;SDS011;1329;51.384;7.122;2024-02-28T09:07:36;61.47;;;36.57;;
2638;SDS011;1329;51.384;7.122;2024-02-28T09:10:04;58.93;;;35.40;;
2638;SDS011;1329;51.384;7.122;2024-02-28T09:12:34;61.53;;;35.07;;
2638;SDS011;1329;51.384;7.122;2024-02-28T09:15:02;61.47;;;35.40;;
2638;SDS011;1329;51.384;7.122;2024-02-28T09:17:34;56.10;;;32.63;;
2638;SDS011;1329;51.384;7.122;2024-02-28T09:20:01;54.33;;;33.23;;
2638;SDS011;1329;51.384;7.122;2024-02-28T09:22:34;55.07;;;33.17;;
2638;SDS011;1329;51.384;7.122;2024-02-28T09:25:01;58.53;;;35.37;;
2638;SDS011;1329;51.384;7.122;2024-02-28T09:27:30;57.17;;;32.87;;
2638;SDS011;1329;51.384;7.122;2024-02-28T09:29:59;60.27;;;34.27;;
2638;SDS011;1329;51.384;7.122;2024-02-28T09:32:27;57.53;;;33.50;;
2638;SDS011;1329;51.384;7.122;2024-02-28T09:34:55;59.67;;;34.43;;
2638;SDS011;1329;51.384;7.122;2024-02-28T09:37:23;61.60;;;35.43;;
2638;SDS011;1329;51.384;7.122;2024-02-28T09:39:50;66.97;;;38.23;;
2638;SDS011;1329;51.384;7.122;2024-02-28T09:42:18;60.33;;;36.10;;
2638;SDS011;1329;51.384;7.122;2024-02-28T09:44:46;54.93;;;33.27;;
2638;SDS011;1329;51.384;7.122;2024-02-28T09:47:15;46.97;;;29.47;;
2638;SDS011;1329;51.384;7.122;2024-02-28T09:49:43;51.67;;;30.53;;
2638;SDS011;1329;51.384;7.122;2024-02-28T09:52:15;48.77;;;30.13;;
2638;SDS011;1329;51.384;7.122;2024-02-28T09:54:43;52.00;;;31.50;;
2638;SDS011;1329;51.384;7.122;2024-02-28T09:57:14;56.83;;;32.77;;
2638;SDS011;1329;51.384;7.122;2024-02-28T09:59:42;56.17;;;32.80;;
2638;SDS011;1329;51.384;7.122;2024-02-28T10:02:11;51.33;;;32.00;;
2638;SDS011;1329;51.384;7.122;2024-02-28T10:04:45;53.57;;;31.53;;
2638;SDS011;1329;51.384;7.122;2024-02-28T10:07:13;52.73;;;32.33;;
2638;SDS011;1329;51.384;7.122;2024-02-28T10:09:41;53.20;;;32.93;;
2638;SDS011;1329;51.384;7.122;2024-02-28T10:12:11;52.20;;;31.87;;
2638;SDS011;1329;51.384;7.122;2024-02-28T10:14:43;49.87;;;31.63;;
2638;SDS011;1329;51.384;7.122;2024-02-28T10:17:11;47.30;;;29.83;;
2638;SDS011;1329;51.384;7.122;2024-02-28T10:19:40;50.83;;;31.37;;
2638;SDS011;1329;51.384;7.122;2024-02-28T10:22:08;49.70;;;30.40;;
2638;SDS011;1329;51.384;7.122;2024-02-28T10:24:35;47.27;;;29.63;;
2638;SDS011;1329;51.384;7.122;2024-02-28T10:27:03;43.73;;;28.13;;
2638;SDS011;1329;51.384;7.122;2024-02-28T10:29:33;47.47;;;29.43;;
2638;SDS011;1329;51.384;7.122;2024-02-28T10:32:01;47.73;;;30.13;;
2638;SDS011;1329;51.384;7.122;2024-02-28T10:34:35;44.07;;;27.67;;
2638;SDS011;1329;51.384;7.122;2024-02-28T10:37:11;44.40;;;29.13;;
2638;SDS011;1329;51.384;7.122;2024-02-28T10:39:47;44.13;;;28.23;;
2638;SDS011;1329;51.384;7.122;2024-02-28T10:42:22;42.00;;;28.30;;
2638;SDS011;1329;51.384;7.122;2024-02-28T10:44:53;44.83;;;29.17;;
2638;SDS011;1329;51.384;7.122;2024-02-28T10:47:25;41.93;;;28.30;;
2638;SDS011;1329;51.384;7.122;2024-02-28T10:49:56;43.93;;;29.00;;
2638;SDS011;1329;51.384;7.122;2024-02-28T10:52:26;45.33;;;29.77;;
2638;SDS011;1329;51.384;7.122;2024-02-28T10:54:56;47.30;;;30.37;;
2638;SDS011;1329;51.384;7.122;2024-02-28T10:57:25;48.53;;;30.03;;
2638;SDS011;1329;51.384;7.122;2024-02-28T10:59:54;48.30;;;30.07;;
2638;SDS011;1329;51.384;7.122;2024-02-28T11:02:43;45.83;;;29.43;;
2638;SDS011;1329;51.384;7.122;2024-02-28T11:05:44;48.57;;;30.30;;
2638;SDS011;1329;51.384;7.122;2024-02-28T11:08:19;44.70;;;30.10;;
2638;SDS011;1329;51.384;7.122;2024-02-28T11:10:54;45.63;;;29.73;;
2638;SDS011;1329;51.384;7.122;2024-02-28T11:13:25;46.53;;;30.50;;
2638;SDS011;1329;51.384;7.122;2024-02-28T11:15:54;48.97;;;30.50;;
2638;SDS011;1329;51.384;7.122;2024-02-28T11:18:21;50.87;;;31.37;;
2638;SDS011;1329;51.384;7.122;2024-02-28T11:20:50;49.63;;;31.07;;
2638;SDS011;1329;51.384;7.122;2024-02-28T11:23:18;46.43;;;29.63;;
2638;SDS011;1329;51.384;7.122;2024-02-28T11:25:46;45.87;;;29.73;;
2638;SDS011;1329;51.384;7.122;2024-02-28T11:28:14;47.10;;;29.97;;
2638;SDS011;1329;51.384;7.122;2024-02-28T11:30:42;45.23;;;29.73;;
2638;SDS011;1329;51.384;7.122;2024-02-28T11:33:10;46.17;;;29.30;;
2638;SDS011;1329;51.384;7.122;2024-02-28T11:35:37;45.53;;;30.40;;
2638;SDS011;1329;51.384;7.122;2024-02-28T11:38:07;47.80;;;30.03;;
2638;SDS011;1329;51.384;7.122;2024-02-28T11:40:35;47.90;;;30.20;;
2638;SDS011;1329;51.384;7.122;2024-02-28T11:43:02;47.30;;;29.90;;
2638;SDS011;1329;51.384;7.122;2024-02-28T11:45:30;45.90;;;29.10;;
2638;SDS011;1329;51.384;7.122;2024-02-28T11:47:58;44.80;;;28.23;;
2638;SDS011;1329;51.384;7.122;2024-02-28T11:50:27;46.27;;;28.73;;
2638;SDS011;1329;51.384;7.122;2024-02-28T11:52:55;44.93;;;30.23;;
2638;SDS011;1329;51.384;7.122;2024-02-28T11:55:25;44.60;;;29.83;;
2638;SDS011;1329;51.384;7.122;2024-02-28T11:57:53;43.07;;;28.90;;
2638;SDS011;1329;51.384;7.122;2024-02-28T12:00:20;48.03;;;30.57;;
2638;SDS011;1329;51.384;7.122;2024-02-28T12:02:48;51.53;;;30.33;;
2638;SDS011;1329;51.384;7.122;2024-02-28T12:05:15;50.53;;;31.60;;
2638;SDS011;1329;51.384;7.122;2024-02-28T12:07:47;46.77;;;29.47;;
2638;SDS011;1329;51.384;7.122;2024-02-28T12:10:15;45.37;;;29.10;;
2638;SDS011;1329;51.384;7.122;2024-02-28T12:12:44;48.20;;;28.93;;
2638;SDS011;1329;51.384;7.122;2024-02-28T12:15:14;46.47;;;30.03;;
2638;SDS011;1329;51.384;7.122;2024-02-28T12:17:43;44.57;;;28.77;;
2638;SDS011;1329;51.384;7.122;2024-02-28T12:20:10;47.30;;;30.17;;
2638;SDS011;1329;51.384;7.122;2024-02-28T12:22:37;47.57;;;29.20;;
2638;SDS011;1329;51.384;7.122;2024-02-28T12:25:05;46.33;;;29.80;;
2638;SDS011;1329;51.384;7.122;2024-02-28T12:27:34;44.70;;;28.50;;
2638;SDS011;1329;51.384;7.122;2024-02-28T12:30:03;45.37;;;29.40;;
2638;SDS011;1329;51.384;7.122;2024-02-28T12:32:33;39.97;;;25.70;;
2638;SDS011;1329;51.384;7.122;2024-02-28T12:35:00;40.07;;;25.90;;
2638;SDS011;1329;51.384;7.122;2024-02-28T12:37:29;36.03;;;24.40;;
2638;SDS011;1329;51.384;7.122;2024-02-28T12:39:56;38.53;;;24.70;;
2638;SDS011;1329;51.384;7.122;2024-02-28T12:42:24;37.70;;;24.07;;
2638;SDS011;1329;51.384;7.122;2024-02-28T12:44:52;37.00;;;25.10;;
2638;SDS011;1329;51.384;7.122;2024-02-28T12:47:20;40.70;;;26.80;;
2638;SDS011;1329;51.384;7.122;2024-02-28T12:49:48;40.20;;;25.00;;
2638;SDS011;1329;51.384;7.122;2024-02-28T12:52:17;38.10;;;24.30;;
2638;SDS011;1329;51.384;7.122;2024-02-28T12:54:46;38.93;;;24.63;;
2638;SDS011;1329;51.384;7.122;2024-02-28T12:57:14;38.43;;;25.07;;
2638;SDS011;1329;51.384;7.122;2024-02-28T12:59:41;35.10;;;23.60;;
2638;SDS011;1329;51.384;7.122;2024-02-28T13:02:09;37.70;;;24.47;;
2638;SDS011;1329;51.384;7.122;2024-02-28T13:04:38;35.87;;;23.87;;
2638;SDS011;1329;51.384;7.122;2024-02-28T13:07:05;36.70;;;23.33;;
2638;SDS011;1329;51.384;7.122;2024-02-28T13:09:33;40.70;;;26.20;;
2638;SDS011;1329;51.384;7.122;2024-02-28T13:12:00;34.93;;;23.13;;
2638;SDS011;1329;51.384;7.122;2024-02-28T13:14:28;34.27;;;22.73;;
2638;SDS011;1329;51.384;7.122;2024-02-28T13:16:55;34.73;;;22.73;;
2638;SDS011;1329;51.384;7.122;2024-02-28T13:19:23;34.00;;;22.17;;
2638;SDS011;1329;51.384;7.122;2024-02-28T13:21:52;34.67;;;23.40;;
2638;SDS011;1329;51.384;7.122;2024-02-28T13:24:19;32.37;;;22.00;;
2638;SDS011;1329;51.384;7.122;2024-02-28T13:26:47;32.17;;;22.90;;
2638;SDS011;1329;51.384;7.122;2024-02-28T13:29:14;37.37;;;23.60;;
2638;SDS011;1329;51.384;7.122;2024-02-28T13:31:41;34.90;;;23.67;;
2638;SDS011;1329;51.384;7.122;2024-02-28T13:34:09;34.07;;;24.07;;
2638;SDS011;1329;51.384;7.122;2024-02-28T13:36:36;33.45;;;23.65;;
2638;SDS011;1329;51.384;7.122;2024-02-28T13:39:09;34.97;;;23.67;;
2638;SDS011;1329;51.384;7.122;2024-02-28T13:41:36;32.47;;;22.70;;
2638;SDS011;1329;51.384;7.122;2024-02-28T13:44:06;33.83;;;24.03;;
2638;SDS011;1329;51.384;7.122;2024-02-28T13:46:34;32.20;;;23.37;;
2638;SDS011;1329;51.384;7.122;2024-02-28T13:49:02;35.13;;;24.27;;
2638;SDS011;1329;51.384;7.122;2024-02-28T13:51:30;34.43;;;22.33;;
2638;SDS011;1329;51.384;7.122;2024-02-28T13:53:59;31.47;;;22.53;;
2638;SDS011;1329;51.384;7.122;2024-02-28T13:56:28;33.60;;;22.35;;
2638;SDS011;1329;51.384;7.122;2024-02-28T13:58:56;32.13;;;23.20;;
2638;SDS011;1329;51.384;7.122;2024-02-28T14:01:24;32.50;;;23.37;;
2638;SDS011;1329;51.384;7.122;2024-02-28T14:03:51;33.33;;;23.20;;
2638;SDS011;1329;51.384;7.122;2024-02-28T14:06:19;31.25;;;22.63;;
2638;SDS011;1329;51.384;7.122;2024-02-28T14:08:46;30.00;;;21.57;;
2638;SDS011;1329;51.384;7.122;2024-02-28T14:11:14;30.80;;;21.87;;
2638;SDS011;1329;51.384;7.122;2024-02-28T14:13:44;32.97;;;21.73;;
2638;SDS011;1329;51.384;7.122;2024-02-28T14:16:11;32.17;;;23.00;;
2638;SDS011;1329;51.384;7.122;2024-02-28T14:18:39;33.67;;;23.70;;
2638;SDS011;1329;51.384;7.122;2024-02-28T14:21:06;31.67;;;22.92;;
2638;SDS011;1329;51.384;7.122;2024-02-28T14:23:34;33.97;;;23.55;;
2638;SDS011;1329;51.384;7.122;2024-02-28T14:26:01;33.57;;;23.43;;
2638;SDS011;1329;51.384;7.122;2024-02-28T14:28:29;32.30;;;22.30;;
2638;SDS011;1329;51.384;7.122;2024-02-28T14:30:57;32.37;;;23.27;;
2638;SDS011;1329;51.384;7.122;2024-02-28T14:33:24;30.57;;;22.37;;
2638;SDS011;1329;51.384;7.122;2024-02-28T14:35:52;27.52;;;20.52;;
2638;SDS011;1329;51.384;7.122;2024-02-28T14:38:19;29.67;;;21.00;;
2638;SDS011;1329;51.384;7.122;2024-02-28T14:40:46;30.60;;;21.57;;
2638;SDS011;1329;51.384;7.122;2024-02-28T14:43:14;31.97;;;22.43;;
2638;SDS011;1329;51.384;7.122;2024-02-28T14:45:41;31.43;;;21.87;;
2638;SDS011;1329;51.384;7.122;2024-02-28T14:48:10;31.90;;;23.30;;
2638;SDS011;1329;51.384;7.122;2024-02-28T14:50:37;30.80;;;22.15;;
2638;SDS011;1329;51.384;7.122;2024-02-28T14:53:07;32.15;;;21.73;;
2638;SDS011;1329;51.384;7.122;2024-02-28T14:55:35;28.73;;;20.57;;
2638;SDS011;1329;51.384;7.122;2024-02-28T14:58:02;29.23;;;21.00;;
2638;SDS011;1329;51.384;7.122;2024-02-28T15:00:30;30.43;;;21.07;;